Flight Track Log - Related Links

Times and Time Zones

All times are in EDT time to prevent confusion due to time zone crossing. See the SWA318 flight status page for this flight to view local times or setup timezone preferences in your user account.

Time Position Orientation Groundspeed Altitude Reporting Facility
EDT Latitude Longitude Course Direction KTS MPH feet Rate Location/Type
Tue 12:36:49 PM 33.4167 -112.0833 248° West 221 254 3,600  Level Phoenix TRACON
Tue 12:37:49 PM 33.4000 -112.1500 253° West 232 267 7,500 3,481 Climbing Phoenix TRACON
Tue 12:38:10 PM 33.3903 -112.1692 239° Southwest 232 267 8,300 2,458 Climbing Albuquerque Center
Tue 12:39:12 PM 33.3292 -112.1447 162° South 264 304 10,900 2,516 Climbing Albuquerque Center
Tue 12:40:14 PM 33.3381 -112.0397 84° East 338 389 13,500 2,661 Climbing Albuquerque Center
Tue 12:41:16 PM 33.3669 -111.9272 73° East 355 409 16,400 2,952 Climbing Albuquerque Center
Tue 12:42:18 PM 33.4017 -111.7831 74° East 377 434 19,600 2,226 Climbing Albuquerque Center
Tue 12:43:20 PM 33.4350 -111.6519 73° East 414 476 21,000 1,597 Climbing Albuquerque Center
Tue 12:44:22 PM 33.4700 -111.5106 73° East 445 512 22,900 1,887 Climbing Albuquerque Center
Tue 12:45:24 PM 33.5044 -111.3628 74° East 462 532 24,900 1,935 Climbing Albuquerque Center
Tue 12:46:26 PM 33.5253 -111.1750 82° East 477 549 26,900 1,839 Climbing Albuquerque Center
Tue 12:47:28 PM 33.5425 -111.0125 83° East 493 567 28,700 1,645 Climbing Albuquerque Center
Tue 12:48:30 PM 33.5706 -110.8486 78° East 502 578 30,300 1,548 Climbing Albuquerque Center
Tue 12:49:32 PM 33.6222 -110.6919 68° East 506 582 31,900 1,500 Climbing Albuquerque Center
Tue 12:50:34 PM 33.6725 -110.5339 69° East 508 585 33,400 1,452 Climbing Albuquerque Center
Tue 12:51:36 PM 33.7283 -110.3564 69° East 507 583 34,900 774 Climbing Albuquerque Center
Tue 12:52:38 PM 33.7797 -110.2014 68° East 504 580 35,000 48 Climbing Albuquerque Center
Tue 12:53:40 PM 33.8306 -110.0439 69° East 506 582 35,000  Level Albuquerque Center
Tue 12:54:43 PM 33.8803 -109.8867 69° East 507 583 35,000 96 Level Albuquerque Center
Tue 12:55:45 PM 33.9392 -109.6981 69° East 506 582 35,200 581 Climbing Albuquerque Center
Tue 12:56:47 PM 33.9861 -109.5453 70° East 495 570 36,200 871 Climbing Albuquerque Center
Tue 12:57:49 PM 34.0111 -109.3914 79° East 474 545 37,000 387 Climbing Albuquerque Center
Tue 12:58:51 PM 34.0364 -109.2394 79° East 469 540 37,000  Level Albuquerque Center
Tue 12:59:53 PM 34.0617 -109.0836 79° East 472 543 37,000  Level Albuquerque Center
Tue 01:00:55 PM 34.0933 -108.8947 79° East 479 551 37,000  Level Albuquerque Center
Tue 01:01:57 PM 34.1186 -108.7356 79° East 482 555 37,000  Level Albuquerque Center
Tue 01:02:59 PM 34.1444 -108.5758 79° East 486 559 37,000  Level Albuquerque Center
Tue 01:04:01 PM 34.1703 -108.4133 79° East 492 566 37,000  Level Albuquerque Center
Tue 01:05:03 PM 34.1942 -108.2500 80° East 496 571 37,000 -48 Level Albuquerque Center
Tue 01:06:05 PM 34.2103 -108.0783 83° East 497 572 36,900  Descending Albuquerque Center
Tue 01:07:07 PM 34.2147 -107.9164 88° East 488 562 37,000  Climbing Albuquerque Center
Tue 01:08:09 PM 34.2497 -107.7214 78° East 494 568 36,900  Descending Albuquerque Center
Tue 01:09:11 PM 34.2739 -107.5567 80° East 497 572 37,000 48 Climbing Albuquerque Center
Tue 01:10:13 PM 34.2986 -107.3917 80° East 499 574 37,000  Level Albuquerque Center
Tue 01:11:15 PM 34.3217 -107.2406 79° East 487 560 37,000  Level Albuquerque Center
Tue 01:12:17 PM 34.3464 -107.0811 79° East 483 556 37,000  Level Albuquerque Center
Tue 01:13:19 PM 34.3744 -106.8844 80° East 494 568 37,000  Level Albuquerque Center
Tue 01:14:21 PM 34.3972 -106.7206 80° East 496 571 37,000  Level Albuquerque Center
Tue 01:15:23 PM 34.4197 -106.5611 80° East 488 562 37,000  Level Albuquerque Center
Tue 01:16:25 PM 34.4428 -106.3997 80° East 488 562 37,000  Level Albuquerque Center
Tue 01:17:27 PM 34.4644 -106.2408 81° East 486 559 37,000  Level Albuquerque Center
Tue 01:18:29 PM 34.4928 -106.0425 80° East 487 560 37,000  Level Albuquerque Center
Tue 01:19:31 PM 34.5144 -105.8800 81° East 486 559 37,000  Level Albuquerque Center
Tue 01:20:33 PM 34.5375 -105.7181 80° East 484 557 37,000  Level Albuquerque Center
Tue 01:21:35 PM 34.5578 -105.5550 81° East 485 558 37,000  Level Albuquerque Center
Tue 01:22:37 PM 34.5819 -105.3906 80° East 490 564 37,000  Level Albuquerque Center
Tue 01:23:39 PM 34.6031 -105.2239 81° East 495 570 37,000  Level Albuquerque Center
Tue 01:24:41 PM 34.6244 -105.0578 81° East 495 570 37,000  Level Albuquerque Center
Tue 01:25:43 PM 34.6497 -104.8642 81° East 495 570 37,000  Level Albuquerque Center
Tue 01:26:45 PM 34.6681 -104.6953 82° East 500 575 37,000  Level Albuquerque Center
Tue 01:27:47 PM 34.6825 -104.5275 84° East 499 574 37,000  Level Albuquerque Center
Tue 01:28:49 PM 34.6961 -104.3569 84° East 503 579 37,000  Level Albuquerque Center
Tue 01:29:52 PM 34.7108 -104.1861 84° East 507 583 37,000  Level Albuquerque Center
Tue 01:30:54 PM 34.7239 -104.0142 85° East 509 586 37,000  Level Albuquerque Center
Tue 01:31:56 PM 34.7406 -103.8136 84° East 510 587 37,000  Level Albuquerque Center
Tue 01:32:58 PM 34.7531 -103.6386 85° East 515 593 37,000  Level Albuquerque Center
Tue 01:34:00 PM 34.7667 -103.4656 84° East 514 592 37,000  Level Albuquerque Center
Tue 01:35:02 PM 34.7794 -103.2914 85° East 513 590 37,000  Level Albuquerque Center
Tue 01:36:04 PM 34.7911 -103.1183 85° East 512 589 37,000  Level Albuquerque Center
Tue 01:37:06 PM 34.8047 -102.9431 85° East 515 593 37,000  Level Albuquerque Center
Tue 01:38:08 PM 34.8178 -102.7406 85° East 513 590 37,000  Level Albuquerque Center
Tue 01:39:10 PM 34.8289 -102.5736 85° East 509 586 37,000  Level Albuquerque Center
Tue 01:40:12 PM 34.8403 -102.4028 85° East 509 586 37,000  Level Albuquerque Center
Tue 01:41:14 PM 34.8519 -102.2311 85° East 511 588 37,000  Level Albuquerque Center
Tue 01:42:15 PM 34.8622 -102.0614 86° East 508 585 37,000  Level Albuquerque Center
Tue 01:43:17 PM 34.8742 -101.8614 86° East 501 577 37,000  Level Albuquerque Center
Tue 01:44:19 PM 34.8844 -101.6967 86° East 497 572 37,000  Level Albuquerque Center
Tue 01:45:21 PM 34.8931 -101.5322 86° East 494 568 37,000  Level Albuquerque Center
Tue 01:46:23 PM 34.9022 -101.3689 86° East 491 565 37,000  Level Albuquerque Center
Tue 01:47:25 PM 34.9114 -101.2078 86° East 487 560 37,000  Level Albuquerque Center
Tue 01:48:27 PM 34.9219 -101.0158 86° East 480 552 37,000  Level Albuquerque Center
Tue 01:49:29 PM 34.9308 -100.8564 86° East 476 548 37,000  Level Albuquerque Center
Tue 01:50:30 PM 34.9392 -100.6967 86° East 475 547 37,000  Level Albuquerque Center
Tue 01:51:32 PM 34.9464 -100.5372 87° East 474 545 37,000  Level Albuquerque Center
Tue 01:52:34 PM 34.9556 -100.3711 86° East 475 547 37,000  Level Albuquerque Center
Tue 01:53:36 PM 34.9631 -100.2097 87° East 477 549 37,000  Level Albuquerque Center
Tue 01:54:38 PM 34.9717 -100.0503 86° East 473 544 37,000  Level Albuquerque Center
Tue 01:55:39 PM 34.9786 -99.8900 87° East 473 544 37,000  Level Albuquerque Center
Tue 01:56:41 PM 34.9867 -99.6967 87° East 475 547 37,000  Level Albuquerque Center
Tue 01:57:39 PM 34.9914 -99.5575 88° East 479 551 37,000  Level Fort Worth Center
Tue 01:58:39 PM 34.9964 -99.3931 88° East 474 545 37,000  Level Fort Worth Center
Tue 01:59:39 PM 35.0050 -99.2308 86° East 474 545 37,000  Level Fort Worth Center
Tue 02:00:39 PM 35.0094 -99.0689 88° East 474 545 37,000  Level Fort Worth Center
Tue 02:01:39 PM 35.0156 -98.9042 87° East 474 545 37,000  Level Fort Worth Center
Tue 02:02:39 PM 35.0217 -98.7419 87° East 474 545 37,000  Level Fort Worth Center
Tue 02:03:39 PM 35.0294 -98.5772 87° East 474 545 37,000  Level Fort Worth Center
Tue 02:04:39 PM 35.0331 -98.4203 88° East 474 545 37,000  Level Fort Worth Center
Tue 02:05:39 PM 35.0383 -98.2606 88° East 469 540 37,000  Level Fort Worth Center
Tue 02:06:39 PM 35.0414 -98.0983 89° East 474 545 37,000  Level Fort Worth Center
Tue 02:07:39 PM 35.0464 -97.9358 88° East 474 545 37,000  Level Fort Worth Center
Tue 02:08:39 PM 35.0511 -97.7686 88° East 474 545 37,000  Level Fort Worth Center
Tue 02:09:39 PM 35.0556 -97.6039 88° East 479 551 37,000  Level Fort Worth Center
Tue 02:10:39 PM 35.0581 -97.4211 89° East 479 551 37,000  Level Fort Worth Center
Tue 02:11:39 PM 35.0619 -97.2589 88° East 479 551 37,000  Level Fort Worth Center
Tue 02:12:39 PM 35.0658 -97.0914 88° East 484 557 37,000  Level Fort Worth Center
Tue 02:13:39 PM 35.0717 -96.9239 88° East 484 557 37,000  Level Fort Worth Center
Tue 02:14:39 PM 35.0731 -96.7617 89° East 484 557 37,000  Level Fort Worth Center
Tue 02:15:39 PM 35.0761 -96.5967 89° East 479 551 37,000  Level Fort Worth Center
Tue 02:16:39 PM 35.0814 -96.4367 88° East 479 551 37,000  Level Fort Worth Center
Tue 02:17:39 PM 35.0819 -96.2719 90° East 479 551 37,000  Level Fort Worth Center
Tue 02:18:39 PM 35.0844 -96.1094 89° East 479 551 37,000  Level Fort Worth Center
Tue 02:19:39 PM 35.0869 -95.9419 89° East 479 551 37,000  Level Fort Worth Center
Tue 02:21:41 PM 35.0928 -95.6128 89° East 481 554 37,000  Level Memphis Center
Tue 02:22:41 PM 35.0933 -95.4478 90° East 481 554 37,000  Level Memphis Center
Tue 02:23:41 PM 35.0958 -95.2831 89° East 481 554 37,000  Level Memphis Center
Tue 02:24:41 PM 35.0961 -95.1131 90° East 481 554 37,000  Level Memphis Center
Tue 02:25:41 PM 35.0981 -94.9483 89° East 481 554 37,000  Level Memphis Center
Tue 02:26:41 PM 35.0978 -94.7833 90° East 481 554 37,000  Level Memphis Center
Tue 02:27:41 PM 35.0950 -94.6283 91° East 486 559 37,000  Level Memphis Center
Tue 02:28:41 PM 35.0983 -94.4611 89° East 492 566 37,000  Level Memphis Center
Tue 02:29:41 PM 35.0961 -94.2731 91° East 502 578 37,000  Level Memphis Center
Tue 02:30:41 PM 35.0992 -94.1056 89° East 496 571 37,000  Level Memphis Center
Tue 02:31:41 PM 35.1019 -93.9408 89° East 496 571 37,000  Level Memphis Center
Tue 02:32:41 PM 35.0942 -93.7706 93° East 496 571 37,000  Level Memphis Center
Tue 02:33:41 PM 35.0944 -93.6031 90° East 496 571 37,000  Level Memphis Center
Tue 02:34:41 PM 35.0925 -93.4328 91° East 496 571 37,000  Level Memphis Center
Tue 02:35:41 PM 35.0925 -93.2653 90° East 496 571 37,000  Level Memphis Center
Tue 02:36:41 PM 35.0881 -93.0953 92° East 496 571 37,000  Level Memphis Center
Tue 02:37:41 PM 35.0872 -92.9278 90° East 496 571 37,000  Level Memphis Center
Tue 02:38:41 PM 35.0844 -92.7550 91° East 496 571 37,000  Level Memphis Center
Tue 02:39:41 PM 35.0836 -92.5850 90° East 496 571 37,000  Level Memphis Center
Tue 02:40:41 PM 35.0822 -92.4150 91° East 496 571 37,000  Level Memphis Center
Tue 02:41:41 PM 35.0786 -92.2475 91° East 496 571 37,000  Level Memphis Center
Tue 02:42:41 PM 35.0728 -92.0825 92° East 496 571 37,000  Level Memphis Center
Tue 02:43:41 PM 35.0708 -91.9125 91° East 496 571 37,000  Level Memphis Center
Tue 02:44:41 PM 35.0686 -91.7397 91° East 496 571 37,000  Level Memphis Center
Tue 02:45:41 PM 35.0619 -91.5672 93° East 496 571 37,000  Level Memphis Center
Tue 02:46:41 PM 35.0594 -91.3997 91° East 496 571 37,000  Level Memphis Center
Tue 02:47:41 PM 35.0564 -91.2347 91° East 489 563 37,000  Level Memphis Center
Tue 02:48:41 PM 35.0514 -91.0672 92° East 489 563 37,000  Level Memphis Center
Tue 02:49:41 PM 35.0481 -90.8975 91° East 494 568 37,000  Level Memphis Center
Tue 02:50:41 PM 35.0444 -90.7300 91° East 501 577 37,000  Level Memphis Center
Tue 02:51:41 PM 35.0364 -90.5600 93° East 494 568 37,000  Level Memphis Center
Tue 02:52:41 PM 35.0325 -90.4103 92° East 494 568 37,000  Level Memphis Center
Tue 02:53:41 PM 35.0261 -90.2456 93° East 494 568 37,000  Level Memphis Center
Tue 02:54:41 PM 35.0236 -90.0781 91° East 494 568 37,000  Level Memphis Center
Tue 02:55:41 PM 35.0108 -89.9158 95° East 494 568 37,000  Level Memphis Center
Tue 02:56:41 PM 34.9847 -89.7286 100° East 499 574 37,000  Level Memphis Center
Tue 02:57:41 PM 34.9589 -89.5589 100° East 508 585 37,000  Level Memphis Center
Tue 02:58:41 PM 34.9306 -89.3969 102° East 495 570 37,000  Level Memphis Center
Tue 02:59:41 PM 34.9042 -89.2278 101° East 495 570 37,000  Level Memphis Center
Tue 03:00:41 PM 34.8794 -89.0611 100° East 500 575 37,000  Level Memphis Center
Tue 03:01:41 PM 34.8550 -88.9119 101° East 500 575 37,000  Level Memphis Center
Tue 03:02:41 PM 34.8319 -88.7431 99° East 506 582 37,000  Level Memphis Center
Tue 03:03:41 PM 34.8047 -88.5739 101° East 506 582 37,000  Level Memphis Center
Tue 03:04:41 PM 34.7772 -88.4178 102° East 484 557 37,000 -150 Level Memphis Center
Tue 03:05:41 PM 34.7514 -88.2492 101° East 490 564 36,700 -650 Descending Memphis Center
Tue 03:06:41 PM 34.7233 -88.0731 101° East 511 588 35,700 -850 Descending Memphis Center
Tue 03:07:41 PM 34.6950 -87.8944 101° East 506 582 35,000 -800 Descending Memphis Center
Tue 03:08:41 PM 34.6689 -87.7386 101° East 487 560 34,100 -950 Descending Memphis Center
Tue 03:09:41 PM 34.6444 -87.5778 100° East 476 548 33,100 -344 Descending Memphis Center
Tue 03:11:53 PM 34.5817 -87.2253 102° East 483 556 33,000 -31 Descending Atlanta Center
Tue 03:12:53 PM 34.5503 -87.0628 103° East 489 563 33,000  Level Atlanta Center
Tue 03:13:53 PM 34.5186 -86.8978 103° East 489 563 33,000 -400 Level Atlanta Center
Tue 03:14:53 PM 34.4869 -86.7378 103° East 489 563 32,200 -900 Descending Atlanta Center
Tue 03:15:53 PM 34.4547 -86.5731 103° East 489 563 31,200 -1,000 Descending Atlanta Center
Tue 03:16:53 PM 34.4225 -86.4108 103° East 489 563 30,200 -950 Descending Atlanta Center
Tue 03:17:53 PM 34.3922 -86.2464 103° East 489 563 29,300 -1,200 Descending Atlanta Center
Tue 03:18:53 PM 34.3597 -86.0844 104° East 489 563 27,800 -1,900 Descending Atlanta Center
Tue 03:19:53 PM 34.3286 -85.9303 104° East 484 557 25,500 -2,300 Descending Atlanta Center
Tue 03:20:53 PM 34.2994 -85.7839 104° East 456 525 23,200 -2,050 Descending Atlanta Center
Tue 03:21:53 PM 34.2722 -85.6525 104° East 445 512 21,400 -2,050 Descending Atlanta Center
Tue 03:22:53 PM 34.2447 -85.5114 103° East 440 506 19,100 -1,950 Descending Atlanta Center
Tue 03:23:53 PM 34.2169 -85.3703 103° East 434 499 17,500 -1,900 Descending Atlanta Center
Tue 03:24:53 PM 34.1872 -85.2367 105° East 420 483 15,300 -2,050 Descending Atlanta Center
Tue 03:25:53 PM 34.1528 -85.1131 109° East 405 466 13,400 -1,150 Descending Atlanta Center
Tue 03:26:53 PM 34.0889 -85.0269 132° Southeast 364 419 13,000 -600 Descending Atlanta Center
Tue 03:27:53 PM 34.0142 -84.9636 145° Southeast 314 361 12,200 -1,150 Descending Atlanta Center
Tue 03:28:53 PM 33.9308 -84.9375 165° South 300 345 10,700 -1,500 Descending Atlanta Center
Tue 03:29:53 PM 33.8494 -84.9292 175° South 300 345 9,200 -900 Descending Atlanta Center
Tue 03:30:53 PM 33.7703 -84.9183 174° South 300 345 8,900 -900 Descending Atlanta Center
Tue 03:31:53 PM 33.6931 -84.8978 168° South 289 333 7,400 -1,000 Descending Atlanta Center
Tue 03:32:53 PM 33.6394 -84.8347 136° Southeast 269 310 6,900 -750 Descending Atlanta Center
Tue 03:33:53 PM 33.6272 -84.7447 99° East 256 295 5,900 -1,250 Descending Atlanta Center
Tue 03:34:53 PM 33.6319 -84.6575 86° East 246 283 4,400 -1,561 Descending Atlanta Center
Tue 03:35:56 PM 33.6333 -84.5667 89° East 235 270 2,700 -1,073 Descending Atlanta TRACON
Tue 03:36:56 PM 33.6333 -84.5167 90° East 147 169 2,200 -700 Descending Atlanta TRACON
Tue 03:37:56 PM 33.6333 -84.4667 90° East 143 165 1,300 -900 Descending Atlanta TRACON
Tue 03:39:00 PM 33.6367 -84.4279 90° East  Level Estimated
Tue 03:46:00 PM 33.6367 -84.4279 90° East  Level Estimated
Tue 03:47:00 PM 33.6367 -84.4279 90° East  Level Estimated

Login

Don't have an account? Register now (free) for customized features, flight alerts, and more!